< < Back
Terminal Aerodrome Forecast


Current Version              Previous Versions:   1  2  3  4  5  6  7  8  9  

Terminal Aerodrome Forecast

792
FTUS42 KJAX 010520
TAFSSI
TAF
KSSI 010520Z 0106/0206 08002KT P6SM SCT150 SCT250
     FM011600 15012G18KT P6SM SCT040 SCT150 BKN250=



Latest METAR

416
SAUS70 KWBC 011400 RRX
MTRSSI
METAR KSSI 011353Z AUTO 10005KT 10SM CLR 13/11 A3027 RMK AO2 SLP249
T01330106


USA.gov is the U.S. government's official web portal to all federal, state and local government web resources and services.